createdAt,value
2022-10-20T00:01:46.223Z,8.15
2022-10-20T00:04:13.734Z,9.45
2022-10-20T00:06:40.893Z,11.32
2022-10-20T00:09:08.138Z,7.50
2022-10-20T00:11:35.557Z,8.25
2022-10-20T00:14:03.464Z,9.40
2022-10-20T00:16:32.185Z,10.00
2022-10-20T00:18:59.687Z,9.23
2022-10-20T00:21:28.504Z,10.88
2022-10-20T00:23:55.728Z,9.05
2022-10-20T00:26:26.393Z,8.38
2022-10-20T00:28:53.717Z,7.30
2022-10-20T00:31:21.636Z,8.85
2022-10-20T00:33:49.004Z,8.63
2022-10-20T00:36:17.642Z,7.85
2022-10-20T00:38:45.223Z,7.45
2022-10-20T00:41:17.127Z,9.82
2022-10-20T00:43:55.169Z,7.47
2022-10-20T00:46:23.641Z,9.57
2022-10-20T00:48:56.105Z,7.38
2022-10-20T00:51:25.552Z,8.40
2022-10-20T00:53:53.844Z,10.60
2022-10-20T00:56:21.813Z,10.00
2022-10-20T00:58:49.667Z,7.60
2022-10-20T01:01:17.086Z,7.50
2022-10-20T01:03:49.209Z,9.23
2022-10-20T01:08:51.965Z,9.30
2022-10-20T01:11:24.217Z,7.13
2022-10-20T01:13:57.640Z,6.78
2022-10-20T01:16:29.946Z,7.68
2022-10-20T01:19:06.618Z,9.80
2022-10-20T01:21:52.791Z,8.88
2022-10-20T01:26:47.090Z,7.43
2022-10-20T01:29:16.702Z,11.57
2022-10-20T01:31:51.517Z,6.45
2022-10-20T01:34:18.653Z,8.57
2022-10-20T01:36:51.586Z,11.90
2022-10-20T01:39:28.313Z,7.63
2022-10-20T01:41:58.576Z,7.90
2022-10-20T01:44:26.980Z,8.75
2022-10-20T01:46:54.601Z,7.45
2022-10-20T01:49:23.354Z,7.25
2022-10-20T01:51:50.497Z,9.07
2022-10-20T01:54:27.913Z,8.07
2022-10-20T01:57:13.985Z,8.40
2022-10-20T01:59:47.392Z,7.55
2022-10-20T02:02:20.416Z,8.05
2022-10-20T02:05:06.488Z,8.38
2022-10-20T02:07:34.145Z,8.43
2022-10-20T02:10:06.329Z,10.15
2022-10-20T02:12:36.706Z,8.02
2022-10-20T02:15:05.113Z,7.63
2022-10-20T02:17:34.016Z,5.82
2022-10-20T02:20:01.317Z,7.53
2022-10-20T02:22:28.500Z,10.60
2022-10-20T02:24:56.224Z,5.95
2022-10-20T02:27:26.621Z,6.20
2022-10-20T02:30:13.202Z,9.73
2022-10-20T02:32:41.625Z,5.72
2022-10-20T02:35:11.479Z,5.88
2022-10-20T02:37:39.051Z,6.75
2022-10-20T02:40:06.723Z,8.30
2022-10-20T02:42:33.934Z,7.88
2022-10-20T02:45:01.122Z,6.85
2022-10-20T02:47:28.263Z,5.72
2022-10-20T02:49:55.415Z,5.57
2022-10-20T02:52:22.598Z,6.03
2022-10-20T02:54:50.206Z,6.10
2022-10-20T02:57:17.425Z,6.05
2022-10-20T02:59:44.608Z,7.45
2022-10-20T03:02:11.818Z,5.80
2022-10-20T03:04:38.993Z,9.38
2022-10-20T03:07:06.262Z,8.73
2022-10-20T03:09:33.537Z,6.35
2022-10-20T03:12:00.696Z,8.57
2022-10-20T03:14:27.853Z,6.00
2022-10-20T03:16:54.967Z,5.75
2022-10-20T03:19:22.101Z,8.00
2022-10-20T03:21:49.664Z,5.05
2022-10-20T03:24:17.752Z,5.28
2022-10-20T03:26:44.889Z,6.40
2022-10-20T03:29:12.013Z,5.25
2022-10-20T03:31:39.269Z,5.45
2022-10-20T03:34:06.483Z,9.68
2022-10-20T03:36:33.697Z,5.03
2022-10-20T03:39:00.848Z,6.97
2022-10-20T03:41:28.024Z,7.20
2022-10-20T03:43:55.289Z,5.07
2022-10-20T03:46:22.447Z,5.28
2022-10-20T03:48:49.588Z,4.85
2022-10-20T03:51:16.836Z,4.32
2022-10-20T03:53:43.973Z,5.18
2022-10-20T03:56:13.190Z,5.75
2022-10-20T03:58:40.373Z,5.53
2022-10-20T04:01:09.381Z,6.75
2022-10-20T04:03:36.589Z,7.57
2022-10-20T04:06:03.789Z,6.38
2022-10-20T04:08:30.970Z,4.72
2022-10-20T04:10:59.129Z,5.15
2022-10-20T04:13:26.286Z,4.72
2022-10-20T04:15:53.454Z,5.55
2022-10-20T04:18:20.644Z,4.82
2022-10-20T04:20:50.622Z,5.07
2022-10-20T04:23:17.783Z,4.72
2022-10-20T04:25:48.795Z,6.72
2022-10-20T04:28:17.101Z,5.15
2022-10-20T04:30:44.304Z,5.32
2022-10-20T04:33:11.999Z,4.53
2022-10-20T04:35:39.398Z,4.93
2022-10-20T04:38:06.868Z,4.68
2022-10-20T04:40:34.189Z,5.65
2022-10-20T04:43:01.539Z,8.55
2022-10-20T04:45:29.003Z,9.20
2022-10-20T04:47:56.181Z,10.73
2022-10-20T04:50:23.409Z,5.07
2022-10-20T04:52:51.333Z,5.60
2022-10-20T04:55:18.851Z,6.13
2022-10-20T04:57:45.988Z,12.95
2022-10-20T05:00:13.508Z,7.15
2022-10-20T05:02:40.652Z,14.05
2022-10-20T05:05:07.980Z,5.72
2022-10-20T05:07:35.516Z,9.05
2022-10-20T05:10:02.934Z,6.75
2022-10-20T05:12:30.133Z,10.60
2022-10-20T05:14:57.341Z,9.75
2022-10-20T05:17:24.553Z,7.55
2022-10-20T05:19:51.740Z,6.38
2022-10-20T05:22:18.849Z,10.88
2022-10-20T05:24:46.078Z,7.93
2022-10-20T05:27:13.208Z,7.00
2022-10-20T05:29:40.507Z,9.23
2022-10-20T05:32:07.624Z,8.40
2022-10-20T05:34:34.790Z,13.38
2022-10-20T05:37:01.989Z,6.65
2022-10-20T05:39:29.194Z,6.05
2022-10-20T05:41:56.433Z,6.95
2022-10-20T05:44:23.627Z,5.88
2022-10-20T05:46:50.789Z,11.55
2022-10-20T05:49:18.027Z,6.72
2022-10-20T05:51:45.697Z,6.80
2022-10-20T05:54:13.498Z,9.23
2022-10-20T05:56:40.704Z,8.05
2022-10-20T05:59:08.822Z,9.43
2022-10-20T06:01:41.252Z,9.55
2022-10-20T06:04:08.834Z,10.02
2022-10-20T06:06:36.280Z,12.32
2022-10-20T06:09:07.944Z,11.07
2022-10-20T06:11:39.224Z,14.60
2022-10-20T06:14:07.341Z,11.15
2022-10-20T06:16:34.514Z,9.48
2022-10-20T06:19:01.700Z,14.52
2022-10-20T06:21:30.078Z,10.93
2022-10-20T06:23:59.568Z,12.68
2022-10-20T06:26:29.927Z,15.52
2022-10-20T06:29:03.580Z,13.52
2022-10-20T06:31:33.021Z,16.67
2022-10-20T06:34:00.513Z,19.88
2022-10-20T06:36:28.101Z,12.68
2022-10-20T06:38:59.002Z,16.63
2022-10-20T06:41:27.073Z,9.27
2022-10-20T06:43:58.902Z,8.23
2022-10-20T06:46:28.675Z,7.78
2022-10-20T06:48:58.694Z,10.55
2022-10-20T06:51:26.405Z,8.15
2022-10-20T06:53:53.750Z,7.57
2022-10-20T06:56:23.121Z,7.18
2022-10-20T06:58:51.191Z,6.32
2022-10-20T07:01:20.144Z,7.15
2022-10-20T07:03:48.263Z,4.68
2022-10-20T07:06:17.112Z,7.32
2022-10-20T07:08:44.768Z,9.00
2022-10-20T07:11:17.008Z,3.90
2022-10-20T07:13:44.511Z,7.53
2022-10-20T07:16:13.314Z,4.63
2022-10-20T07:18:40.663Z,6.20
2022-10-20T07:21:08.954Z,6.88
2022-10-20T07:23:36.719Z,5.45
2022-10-20T07:26:07.867Z,7.43
2022-10-20T07:28:35.754Z,8.10
2022-10-20T07:31:04.127Z,4.90
2022-10-20T07:33:31.338Z,6.38
2022-10-20T07:35:58.532Z,5.22
2022-10-20T07:38:25.799Z,6.95
2022-10-20T07:40:53.145Z,5.80
2022-10-20T07:43:20.315Z,6.05
2022-10-20T07:45:47.522Z,4.95
2022-10-20T07:48:14.709Z,5.53
2022-10-20T07:50:42.055Z,5.47
2022-10-20T07:53:09.205Z,4.50
2022-10-20T07:55:39.033Z,5.05
2022-10-20T07:58:06.602Z,7.78
2022-10-20T08:00:33.854Z,5.60
2022-10-20T08:03:01.059Z,4.95
2022-10-20T08:05:29.497Z,7.97
2022-10-20T08:07:58.255Z,4.45
2022-10-20T08:10:25.611Z,3.55
2022-10-20T08:12:52.755Z,9.80
2022-10-20T08:18:04.952Z,10.15
2022-10-20T08:20:34.675Z,11.48
2022-10-20T08:23:01.793Z,6.82
2022-10-20T08:25:29.007Z,9.32
2022-10-20T08:27:56.162Z,9.00
2022-10-20T08:30:25.517Z,12.10
2022-10-20T08:32:53.448Z,18.50
2022-10-20T08:35:21.084Z,13.50
2022-10-20T08:37:48.301Z,13.52
2022-10-20T08:40:17.605Z,14.95
2022-10-20T08:42:45.618Z,19.58
2022-10-20T08:45:17.806Z,35.50
2022-10-20T08:47:46.010Z,35.20
2022-10-20T08:50:16.236Z,36.90
2022-10-20T08:52:44.677Z,35.72
2022-10-20T08:55:23.136Z,31.98
2022-10-20T08:57:50.305Z,30.05
2022-10-20T09:00:19.855Z,30.35
2022-10-20T09:02:47.797Z,28.02
2022-10-20T09:05:18.393Z,28.42
2022-10-20T09:07:49.716Z,31.10
2022-10-20T09:10:16.863Z,25.20
2022-10-20T09:12:45.446Z,29.88
2022-10-20T09:15:13.169Z,24.98
2022-10-20T09:17:42.032Z,29.70
2022-10-20T09:20:16.792Z,27.73
2022-10-20T09:22:43.991Z,24.58
2022-10-20T09:25:16.169Z,28.95
2022-10-20T09:27:44.324Z,26.33
2022-10-20T09:30:19.536Z,25.98
2022-10-20T09:32:48.195Z,23.27
2022-10-20T09:35:21.504Z,21.60
2022-10-20T09:37:53.630Z,20.40
2022-10-20T09:40:21.366Z,19.83
2022-10-20T09:42:56.501Z,22.65
2022-10-20T09:45:28.929Z,20.38
2022-10-20T09:48:14.680Z,27.05
2022-10-20T09:50:41.872Z,18.88
2022-10-20T09:53:18.211Z,20.70
2022-10-20T09:55:49.681Z,17.67
2022-10-20T09:58:22.669Z,16.90
2022-10-20T10:00:56.582Z,15.13
2022-10-20T10:03:24.427Z,23.13
2022-10-20T10:05:51.614Z,19.88
2022-10-20T10:08:19.532Z,15.05
2022-10-20T10:10:58.323Z,20.45
2022-10-20T10:13:27.223Z,18.80
2022-10-20T10:16:01.866Z,16.05
2022-10-20T10:18:29.445Z,12.40
2022-10-20T10:21:01.355Z,19.55
2022-10-20T10:23:30.449Z,13.18
2022-10-20T10:26:00.647Z,17.50
2022-10-20T10:28:35.595Z,29.48
2022-10-20T10:31:10.963Z,33.20
2022-10-20T10:33:40.849Z,25.13
2022-10-20T10:36:12.809Z,29.65
2022-10-20T10:38:39.982Z,29.73
2022-10-20T10:41:16.339Z,32.58
2022-10-20T10:43:48.763Z,30.20
2022-10-20T10:46:26.687Z,32.58
2022-10-20T10:48:56.605Z,36.80
2022-10-20T10:51:29.676Z,36.53
2022-10-20T10:54:11.958Z,30.80
2022-10-20T10:56:45.457Z,23.98
2022-10-20T10:59:23.388Z,25.20
2022-10-20T11:01:50.506Z,29.83
2022-10-20T11:04:27.765Z,29.95
2022-10-20T11:06:57.899Z,26.05
2022-10-20T11:09:33.577Z,26.13
2022-10-20T11:12:06.692Z,19.00
2022-10-20T11:14:45.584Z,29.08
2022-10-20T11:17:27.791Z,16.95
2022-10-20T11:20:01.100Z,25.08
2022-10-20T11:22:37.986Z,25.23
2022-10-20T11:25:15.290Z,28.00
2022-10-20T11:27:42.593Z,26.60
2022-10-20T11:30:19.088Z,24.95
2022-10-20T11:32:52.437Z,26.50
2022-10-20T11:35:22.537Z,25.77
2022-10-20T11:37:57.641Z,26.35
2022-10-20T11:40:27.756Z,27.92
2022-10-20T11:43:12.793Z,36.85
2022-10-20T11:45:58.526Z,34.60
2022-10-20T11:48:31.414Z,31.73
2022-10-20T11:53:39.724Z,30.63
2022-10-20T11:56:14.370Z,28.70
2022-10-20T11:58:41.529Z,24.98
2022-10-20T12:01:47.213Z,23.13
2022-10-20T12:04:25.019Z,21.35
2022-10-20T12:07:06.458Z,20.90
2022-10-20T12:10:09.261Z,17.88
2022-10-20T12:12:43.438Z,22.73
2022-10-20T12:15:24.548Z,23.00
2022-10-20T12:17:55.895Z,13.30
2022-10-20T12:20:23.079Z,16.98
2022-10-20T12:22:51.582Z,12.35
2022-10-20T12:25:24.161Z,11.05
2022-10-20T12:28:11.262Z,16.98
2022-10-20T12:30:38.386Z,11.00
2022-10-20T12:33:20.045Z,12.10
2022-10-20T12:35:59.761Z,19.75
2022-10-20T12:38:27.949Z,16.27
2022-10-20T12:40:59.382Z,16.38
2022-10-20T12:43:28.389Z,20.00
2022-10-20T12:45:58.469Z,16.08
2022-10-20T12:48:28.757Z,18.25
2022-10-20T12:51:03.406Z,25.45
2022-10-20T12:53:31.831Z,16.17
2022-10-20T12:56:06.121Z,18.08
2022-10-20T12:58:34.633Z,9.10
2022-10-20T13:01:03.238Z,14.23
2022-10-20T13:03:37.305Z,8.85
2022-10-20T13:06:27.739Z,10.82
2022-10-20T13:09:03.871Z,12.38
2022-10-20T13:11:34.271Z,13.57
2022-10-20T13:14:25.043Z,8.48
2022-10-20T13:17:07.579Z,8.77
2022-10-20T13:19:37.572Z,9.07
2022-10-20T13:22:23.511Z,12.40
2022-10-20T13:24:53.590Z,14.38
2022-10-20T13:27:24.013Z,13.07
2022-10-20T13:29:53.969Z,8.63
2022-10-20T13:32:24.801Z,8.10
2022-10-20T13:35:02.379Z,7.75
2022-10-20T13:37:30.321Z,7.57
2022-10-20T13:40:12.605Z,6.88
2022-10-20T13:42:42.927Z,8.13
2022-10-20T13:45:13.236Z,11.55
2022-10-20T13:47:43.397Z,7.93
2022-10-20T13:50:11.756Z,9.27
2022-10-20T13:52:43.992Z,6.30
2022-10-20T13:55:17.167Z,9.82
2022-10-20T13:57:55.107Z,11.65
2022-10-20T14:00:27.984Z,10.77
2022-10-20T14:02:59.868Z,10.35
2022-10-20T14:05:28.459Z,9.32
2022-10-20T14:07:55.763Z,10.18
2022-10-20T14:10:32.099Z,12.80
2022-10-20T14:12:59.313Z,11.27
2022-10-20T14:15:33.878Z,10.52
2022-10-20T14:18:09.617Z,8.98
2022-10-20T14:23:11.170Z,13.93
2022-10-20T14:25:38.977Z,9.50
2022-10-20T14:28:07.529Z,12.10
2022-10-20T14:30:40.029Z,27.23
2022-10-20T14:33:12.737Z,20.30
2022-10-20T14:35:41.643Z,13.90
2022-10-20T14:38:17.361Z,10.05
2022-10-20T14:43:17.268Z,10.10
2022-10-20T14:45:55.088Z,12.52
2022-10-20T14:48:22.521Z,10.60
2022-10-20T14:50:49.953Z,14.60
2022-10-20T14:53:18.517Z,10.32
2022-10-20T14:55:45.815Z,14.07
2022-10-20T14:58:31.651Z,11.43
2022-10-20T15:01:15.149Z,15.55
2022-10-20T15:03:42.854Z,14.38
2022-10-20T15:06:15.170Z,9.95
2022-10-20T15:08:53.520Z,13.98
2022-10-20T15:13:51.746Z,15.98
2022-10-20T15:16:38.045Z,23.92
2022-10-20T15:19:23.896Z,14.10
2022-10-20T15:21:53.881Z,14.43
2022-10-20T15:24:21.085Z,14.93
2022-10-20T15:26:48.196Z,18.20
2022-10-20T15:29:15.347Z,16.17
2022-10-20T15:31:43.168Z,17.98
2022-10-20T15:34:10.849Z,16.35
2022-10-20T15:36:41.947Z,18.98
2022-10-20T15:39:09.701Z,16.30
2022-10-20T15:41:37.425Z,21.13
2022-10-20T15:44:12.848Z,12.18
2022-10-20T15:46:40.041Z,15.05
2022-10-20T15:49:07.293Z,16.55
2022-10-20T15:51:35.820Z,18.73
2022-10-20T15:54:03.397Z,15.25
2022-10-20T15:56:30.758Z,15.48
2022-10-20T15:58:57.987Z,11.65
2022-10-20T16:01:25.303Z,11.45
2022-10-20T16:03:52.528Z,16.67
2022-10-20T16:06:20.013Z,14.20
2022-10-20T16:08:48.349Z,16.05
2022-10-20T16:11:17.269Z,16.08
2022-10-20T16:13:44.613Z,12.25
2022-10-20T16:16:13.855Z,11.25
2022-10-20T16:18:41.122Z,11.65
2022-10-20T16:21:08.331Z,14.80
2022-10-20T16:23:40.632Z,14.52
2022-10-20T16:26:10.552Z,15.63
2022-10-20T16:28:37.747Z,14.40
2022-10-20T16:31:05.952Z,10.00
2022-10-20T16:33:33.320Z,12.20
2022-10-20T16:36:02.059Z,14.20
2022-10-20T16:38:29.850Z,14.75
2022-10-20T16:40:57.687Z,12.93
2022-10-20T16:43:24.944Z,12.15
2022-10-20T16:45:52.145Z,14.50
2022-10-20T16:48:19.259Z,12.63
2022-10-20T16:50:46.602Z,11.85
2022-10-20T16:53:14.126Z,12.18
2022-10-20T16:55:41.821Z,13.25
2022-10-20T16:58:09.063Z,16.42
2022-10-20T17:00:36.260Z,13.93
2022-10-20T17:03:03.574Z,13.68
2022-10-20T17:05:30.707Z,12.05
2022-10-20T17:07:58.513Z,14.77
2022-10-20T17:10:25.665Z,13.40
2022-10-20T17:12:52.965Z,13.52
2022-10-20T17:15:20.169Z,15.25
2022-10-20T17:17:47.297Z,15.20
2022-10-20T17:20:14.431Z,12.65
2022-10-20T17:22:41.555Z,16.70
2022-10-20T17:25:08.985Z,17.75
2022-10-20T17:27:36.172Z,14.27
2022-10-20T17:30:03.349Z,14.10
2022-10-20T17:32:30.481Z,13.93
2022-10-20T17:34:57.621Z,16.85
2022-10-20T17:37:25.189Z,14.18
2022-10-20T17:39:52.284Z,12.73
2022-10-20T17:42:19.422Z,17.92
2022-10-20T17:44:46.646Z,11.30
2022-10-20T17:47:14.220Z,18.10
2022-10-20T17:49:41.389Z,13.07
2022-10-20T17:52:08.526Z,16.70
2022-10-20T17:54:35.686Z,14.13
2022-10-20T17:57:02.838Z,12.68
2022-10-20T17:59:34.732Z,18.17
2022-10-20T18:02:10.659Z,10.82
2022-10-20T18:04:38.601Z,12.40
2022-10-20T18:07:05.777Z,15.57
2022-10-20T18:09:32.924Z,12.32
2022-10-20T18:12:02.008Z,9.02
2022-10-20T18:14:29.188Z,9.93
2022-10-20T18:16:56.391Z,18.75
2022-10-20T18:19:23.538Z,9.90
2022-10-20T18:21:50.754Z,13.75
2022-10-20T18:24:18.489Z,15.02
2022-10-20T18:26:46.199Z,14.13
2022-10-20T18:29:14.144Z,12.75
2022-10-20T18:31:42.149Z,13.80
2022-10-20T18:34:10.318Z,11.60
2022-10-20T18:36:40.565Z,13.95
2022-10-20T18:39:10.930Z,13.32
2022-10-20T18:41:39.583Z,9.60
2022-10-20T18:44:09.289Z,16.27
2022-10-20T18:46:36.475Z,17.60
2022-10-20T18:49:04.864Z,10.23
2022-10-20T18:51:32.347Z,14.60
2022-10-20T18:54:00.134Z,10.13
2022-10-20T18:56:28.335Z,14.45
2022-10-20T18:59:05.667Z,12.60
2022-10-20T19:01:34.196Z,14.02
2022-10-20T19:04:01.723Z,11.82
2022-10-20T19:06:33.533Z,9.23
2022-10-20T19:09:01.851Z,19.70
2022-10-20T19:11:30.457Z,17.85
2022-10-20T19:13:57.970Z,13.23
2022-10-20T19:16:26.505Z,10.25
2022-10-20T19:18:55.512Z,10.23
2022-10-20T19:21:23.113Z,14.70
2022-10-20T19:23:51.797Z,11.40
2022-10-20T19:26:21.349Z,17.25
2022-10-20T19:28:50.521Z,12.95
2022-10-20T19:31:35.264Z,9.32
2022-10-20T19:34:10.767Z,18.25
2022-10-20T19:36:38.418Z,12.32
2022-10-20T19:39:06.511Z,16.70
2022-10-20T19:41:33.953Z,13.32
2022-10-20T19:44:02.272Z,10.65
2022-10-20T19:46:29.862Z,10.95
2022-10-20T19:48:57.576Z,17.10
2022-10-20T19:51:24.823Z,12.82
2022-10-20T19:53:52.015Z,13.82
2022-10-20T19:56:19.465Z,15.15
2022-10-20T19:58:48.354Z,12.00
2022-10-20T20:01:16.284Z,15.00
2022-10-20T20:03:43.847Z,22.52
2022-10-20T20:06:16.352Z,12.68
2022-10-20T20:08:47.709Z,13.95
2022-10-20T20:11:23.655Z,11.32
2022-10-20T20:13:51.940Z,15.18
2022-10-20T20:16:19.068Z,14.07
2022-10-20T20:18:46.323Z,15.65
2022-10-20T20:21:13.721Z,15.07
2022-10-20T20:23:57.925Z,12.88
2022-10-20T20:26:26.741Z,11.88
2022-10-20T20:28:54.668Z,11.35
2022-10-20T20:31:22.267Z,12.35
2022-10-20T20:33:49.700Z,12.07
2022-10-20T20:36:17.100Z,12.07
2022-10-20T20:38:44.331Z,14.88
2022-10-20T20:41:13.182Z,9.88
2022-10-20T20:43:45.308Z,9.65
2022-10-20T20:46:14.592Z,10.52
2022-10-20T20:48:41.734Z,12.05
2022-10-20T20:51:09.043Z,9.77
2022-10-20T20:53:36.916Z,9.05
2022-10-20T20:56:04.123Z,12.85
2022-10-20T20:58:31.535Z,11.55
2022-10-20T21:01:08.023Z,10.65
2022-10-20T21:03:35.871Z,11.30
2022-10-20T21:06:03.717Z,12.30
2022-10-20T21:08:32.058Z,9.73
2022-10-20T21:11:04.436Z,7.90
2022-10-20T21:13:32.297Z,11.88
2022-10-20T21:16:13.024Z,10.93
2022-10-20T21:18:40.970Z,12.73
2022-10-20T21:21:12.357Z,15.55
2022-10-20T21:23:40.225Z,10.88
2022-10-20T21:26:11.223Z,12.50
2022-10-20T21:28:38.727Z,12.13
2022-10-20T21:31:06.712Z,12.15
2022-10-20T21:33:34.077Z,10.20
2022-10-20T21:36:01.821Z,11.00
2022-10-20T21:38:32.238Z,8.63
2022-10-20T21:41:05.333Z,10.30
2022-10-20T21:43:33.024Z,9.88
2022-10-20T21:46:29.403Z,11.48
2022-10-20T21:48:59.177Z,9.75
2022-10-20T21:51:30.484Z,11.82
2022-10-20T21:53:58.581Z,9.95
2022-10-20T21:56:25.994Z,8.90
2022-10-20T21:58:53.649Z,10.55
2022-10-20T22:01:22.133Z,9.30
2022-10-20T22:03:50.150Z,10.50
2022-10-20T22:06:18.616Z,9.00
2022-10-20T22:08:47.165Z,13.23
2022-10-20T22:11:16.357Z,9.32
2022-10-20T22:13:43.813Z,11.55
2022-10-20T22:16:13.083Z,11.43
2022-10-20T22:18:40.364Z,11.77
2022-10-20T22:21:13.714Z,8.25
2022-10-20T22:23:41.190Z,11.60
2022-10-20T22:26:08.744Z,8.85
2022-10-20T22:28:37.299Z,10.57
2022-10-20T22:31:05.068Z,7.93
2022-10-20T22:33:32.224Z,8.20
2022-10-20T22:35:59.390Z,18.27
2022-10-20T22:38:26.557Z,11.60
2022-10-20T22:40:53.769Z,14.55
2022-10-20T22:43:21.571Z,8.88
2022-10-20T22:45:48.794Z,10.07
2022-10-20T22:48:15.908Z,7.35
2022-10-20T22:50:43.073Z,8.05
2022-10-20T22:53:10.833Z,7.07
2022-10-20T22:55:37.985Z,8.15
2022-10-20T22:58:06.325Z,9.85
2022-10-20T23:00:33.450Z,10.18
2022-10-20T23:03:00.670Z,7.30
2022-10-20T23:05:27.808Z,6.70
2022-10-20T23:07:54.965Z,6.43
2022-10-20T23:10:22.156Z,7.07
2022-10-20T23:12:49.317Z,7.18
2022-10-20T23:15:16.470Z,8.60
2022-10-20T23:17:43.653Z,7.25
2022-10-20T23:20:11.269Z,6.53
2022-10-20T23:22:38.497Z,7.82
2022-10-20T23:25:05.817Z,9.77
2022-10-20T23:27:36.528Z,8.10
2022-10-20T23:30:04.557Z,7.30
2022-10-20T23:32:31.709Z,6.53
2022-10-20T23:34:58.813Z,8.75
2022-10-20T23:37:25.921Z,7.93
2022-10-20T23:39:53.126Z,6.32
2022-10-20T23:42:20.256Z,6.03
2022-10-20T23:44:47.407Z,6.60
2022-10-20T23:47:14.674Z,5.90
2022-10-20T23:49:42.020Z,5.82
2022-10-20T23:52:09.189Z,6.18
2022-10-20T23:54:36.347Z,7.78
2022-10-20T23:57:04.042Z,6.30
2022-10-20T23:59:31.170Z,7.47
